createdAt,value
2023-04-15T20:15:52.930Z,29.44
2023-04-15T20:17:00.319Z,29.42
2023-04-15T20:18:06.841Z,29.41
2023-04-15T20:19:14.491Z,29.38
2023-04-15T20:20:20.937Z,29.38
2023-04-15T20:21:27.374Z,29.35
2023-04-15T20:22:33.438Z,29.36
2023-04-15T20:23:39.889Z,29.36
2023-04-15T20:24:45.515Z,29.37
2023-04-15T20:25:51.923Z,29.38
2023-04-15T20:26:58.990Z,29.39
2023-04-15T20:28:04.564Z,29.36
2023-04-15T20:29:10.959Z,29.36
2023-04-15T20:30:16.077Z,29.35
2023-04-15T20:31:24.978Z,29.34
2023-04-15T20:32:30.186Z,29.33
2023-04-15T20:33:36.853Z,29.31
2023-04-15T20:34:41.944Z,29.31
2023-04-15T20:35:48.390Z,29.26
2023-04-15T20:36:53.712Z,29.26
2023-04-15T20:38:00.149Z,29.28
2023-04-15T20:39:05.480Z,29.27
2023-04-15T20:40:13.212Z,29.26
2023-04-15T20:41:19.641Z,29.25
2023-04-15T20:42:28.556Z,29.23
2023-04-15T20:43:33.662Z,29.23
2023-04-15T20:44:40.593Z,29.21
2023-04-15T20:45:47.254Z,29.21
2023-04-15T20:46:54.051Z,29.21
2023-04-15T20:48:00.580Z,29.21
2023-04-15T20:49:05.982Z,29.20
2023-04-15T20:50:13.668Z,29.18
2023-04-15T20:51:18.786Z,29.17
2023-04-15T20:52:25.192Z,29.17
2023-04-15T20:53:30.340Z,29.16
2023-04-15T20:54:36.796Z,29.15
2023-04-15T20:55:41.972Z,29.16
2023-04-15T20:56:48.368Z,29.15
2023-04-15T20:57:53.876Z,29.15
2023-04-15T20:59:00.364Z,29.15
2023-04-15T21:00:06.446Z,29.14
2023-04-15T21:01:12.938Z,29.14
2023-04-15T21:02:19.942Z,29.15
2023-04-15T21:03:26.621Z,29.14
2023-04-15T21:04:31.869Z,29.13
2023-04-15T21:05:38.292Z,29.12
2023-04-15T21:06:43.407Z,29.13
2023-04-15T21:07:49.905Z,29.12
2023-04-15T21:08:56.341Z,29.09
2023-04-15T21:10:02.782Z,29.09
2023-04-15T21:11:07.909Z,29.09
2023-04-15T21:12:14.657Z,29.07
2023-04-15T21:13:19.856Z,29.09
2023-04-15T21:14:26.310Z,29.07
2023-04-15T21:15:32.750Z,29.06
2023-04-15T21:16:38.302Z,29.04
2023-04-15T21:17:46.571Z,29.05
2023-04-15T21:18:51.975Z,29.06
2023-04-15T21:19:58.549Z,29.05
2023-04-15T21:21:05.677Z,29.05
2023-04-15T21:22:11.007Z,29.03
2023-04-15T21:23:17.508Z,29.02
2023-04-15T21:24:22.749Z,29.01
2023-04-15T21:25:29.338Z,29.00
2023-04-15T21:26:34.537Z,28.97
2023-04-15T21:27:41.104Z,28.97
2023-04-15T21:28:46.368Z,28.98
2023-04-15T21:29:54.856Z,28.97
2023-04-15T21:31:00.670Z,28.96
2023-04-15T21:32:07.286Z,28.95
2023-04-15T21:33:15.664Z,28.93
2023-04-15T21:34:21.025Z,28.93
2023-04-15T21:35:27.558Z,28.93
2023-04-15T21:36:33.084Z,28.93
2023-04-15T21:37:40.021Z,28.93
2023-04-15T21:38:45.345Z,28.92
2023-04-15T21:39:51.940Z,28.92
2023-04-15T21:40:57.158Z,28.92
2023-04-15T21:42:04.243Z,28.92
2023-04-15T21:43:09.812Z,28.91
2023-04-15T21:44:16.445Z,28.90
2023-04-15T21:45:21.831Z,28.91
2023-04-15T21:46:36.131Z,28.91
2023-04-15T21:48:00.817Z,28.90
2023-04-15T21:49:09.840Z,28.90
2023-04-15T21:50:17.283Z,28.90
2023-04-15T21:51:22.572Z,28.90
2023-04-15T21:52:29.132Z,28.90
2023-04-15T21:53:34.384Z,28.89
2023-04-15T21:54:40.876Z,28.89
2023-04-15T21:55:46.111Z,28.88
2023-04-15T21:56:52.921Z,28.88
2023-04-15T21:57:58.215Z,28.88
2023-04-15T21:59:05.135Z,28.88
2023-04-15T22:00:12.309Z,28.90
2023-04-15T22:01:21.059Z,28.89
2023-04-15T22:02:26.515Z,28.89
2023-04-15T22:03:34.983Z,28.90
2023-04-15T22:04:42.153Z,28.90
2023-04-15T22:05:49.696Z,28.90
2023-04-15T22:06:57.101Z,28.90
2023-04-15T22:08:06.073Z,28.89
2023-04-15T22:09:13.453Z,28.90
2023-04-15T22:10:21.001Z,28.89
2023-04-15T22:11:28.647Z,28.90
2023-04-15T22:12:35.399Z,28.88
2023-04-15T22:13:40.668Z,28.89
2023-04-15T22:14:47.642Z,28.90
2023-04-15T22:15:53.013Z,28.90
2023-04-15T22:17:00.676Z,28.90
2023-04-15T22:18:06.091Z,28.90
2023-04-15T22:19:12.798Z,28.90
2023-04-15T22:20:19.804Z,28.89
2023-04-15T22:21:26.454Z,28.88
2023-04-15T22:22:42.570Z,28.87
2023-04-15T22:23:49.770Z,28.86
2023-04-15T22:24:56.285Z,28.86
2023-04-15T22:26:02.742Z,28.86
2023-04-15T22:27:12.320Z,28.85
2023-04-15T22:28:17.568Z,28.84
2023-04-15T22:29:24.080Z,28.82
2023-04-15T22:30:29.466Z,28.81
2023-04-15T22:31:39.222Z,28.81
2023-04-15T22:32:44.572Z,28.80
2023-04-15T22:33:51.088Z,28.78
2023-04-15T22:34:56.307Z,28.78
2023-04-15T22:36:04.545Z,28.75
2023-04-15T22:37:09.767Z,28.76
2023-04-15T22:38:16.289Z,28.75
2023-04-15T22:39:21.997Z,28.75
2023-04-15T22:40:28.538Z,28.73
2023-04-15T22:41:33.809Z,28.73
2023-04-15T22:42:40.345Z,28.72
2023-04-15T22:43:45.611Z,28.72
2023-04-15T22:44:52.708Z,28.69
2023-04-15T22:45:58.127Z,28.70
2023-04-15T22:47:04.682Z,28.69
2023-04-15T22:48:10.024Z,28.69
2023-04-15T22:49:16.615Z,28.69
2023-04-15T22:50:22.096Z,28.69
2023-04-15T22:51:31.069Z,28.68
2023-04-15T22:52:36.318Z,28.68
2023-04-15T22:53:42.884Z,28.69
2023-04-15T22:54:50.878Z,28.68
2023-04-15T22:55:57.517Z,28.67
2023-04-15T22:57:02.758Z,28.67
2023-04-15T22:58:09.344Z,28.66
2023-04-15T22:59:15.919Z,28.65
2023-04-15T23:00:21.259Z,28.63
2023-04-15T23:01:28.013Z,28.63
2023-04-15T23:02:33.433Z,28.63
2023-04-15T23:03:55.925Z,28.62
2023-04-15T23:05:13.098Z,28.62
2023-04-15T23:06:18.953Z,28.61
2023-04-15T23:07:27.265Z,28.61
2023-04-15T23:08:32.668Z,28.60
2023-04-15T23:09:39.248Z,28.59
2023-04-15T23:10:46.011Z,28.60
2023-04-15T23:11:52.574Z,28.60
2023-04-15T23:12:57.871Z,28.59
2023-04-15T23:14:04.502Z,28.59
2023-04-15T23:15:10.751Z,28.62
2023-04-15T23:16:17.464Z,28.63
2023-04-15T23:17:22.756Z,28.63
2023-04-15T23:18:29.404Z,28.63
2023-04-15T23:19:34.633Z,28.65
2023-04-15T23:20:41.228Z,28.65
2023-04-15T23:21:46.481Z,28.66
2023-04-15T23:22:54.770Z,28.66
2023-04-15T23:24:00.040Z,28.67
2023-04-15T23:25:06.651Z,28.67
2023-04-15T23:26:11.948Z,28.66
2023-04-15T23:27:19.075Z,28.63
2023-04-15T23:28:24.362Z,28.61
2023-04-15T23:29:30.974Z,28.61
2023-04-15T23:30:36.291Z,28.62
2023-04-15T23:31:43.177Z,28.62
2023-04-15T23:32:48.502Z,28.61
2023-04-15T23:33:55.198Z,28.61
2023-04-15T23:35:00.438Z,28.61
2023-04-15T23:36:07.166Z,28.60
2023-04-15T23:37:12.412Z,28.58
2023-04-15T23:38:20.750Z,28.58
2023-04-15T23:39:26.044Z,28.58
2023-04-15T23:40:32.649Z,28.60
2023-04-15T23:41:38.435Z,28.58
2023-04-15T23:42:44.993Z,28.60
2023-04-15T23:43:50.206Z,28.61
2023-04-15T23:44:56.717Z,28.61
2023-04-15T23:46:01.931Z,28.63
2023-04-15T23:47:08.568Z,28.63
2023-04-15T23:48:13.779Z,28.64
2023-04-15T23:49:20.600Z,28.65
2023-04-15T23:50:25.961Z,28.65
2023-04-15T23:51:32.540Z,28.66
2023-04-15T23:52:37.805Z,28.67
2023-04-15T23:53:46.105Z,28.67
2023-04-15T23:54:51.329Z,28.68
2023-04-15T23:55:57.861Z,28.70
2023-04-15T23:57:03.083Z,28.71
2023-04-15T23:58:09.600Z,28.72
2023-04-15T23:59:14.825Z,28.71
